Time;durP1;ratioP1;P1;durP2;ratioP2;P2;SDS_P1;SDS_P2;PMS_P1;PMS_P2;Temp;Humidity;BMP_temperature;BMP_pressure;BME280_temperature;BME280_humidity;BME280_pressure;Samples;Min_cycle;Max_cycle;Signal;HPM_P1;HPM_P2
2024/02/02 00:01:06;;;;;;;32.15;8.50;;;5.70;99.90;;;;;;7371078;19;20007;-62
2024/02/02 00:03:33;;;;;;;37.53;9.25;;;5.70;99.90;;;;;;7376824;19;20759;-61
2024/02/02 00:05:59;;;;;;;31.55;8.52;;;5.70;99.90;;;;;;7371725;19;21342;-61
2024/02/02 00:08:25;;;;;;;33.95;7.88;;;5.70;99.90;;;;;;7374714;19;20029;-61
2024/02/02 00:10:52;;;;;;;25.00;7.85;;;5.70;99.90;;;;;;7372780;19;20617;-61
2024/02/02 00:13:18;;;;;;;29.08;7.88;;;5.70;99.90;;;;;;7376474;19;20972;-61
2024/02/02 00:15:44;;;;;;;31.48;7.75;;;5.70;99.90;;;;;;7374483;19;20038;-61
2024/02/02 00:18:11;;;;;;;36.70;8.57;;;5.70;99.90;;;;;;7372166;19;20120;-60
2024/02/02 00:20:37;;;;;;;27.58;8.40;;;5.70;99.90;;;;;;7368860;19;20029;-60
2024/02/02 00:23:03;;;;;;;28.55;8.32;;;5.70;99.90;;;;;;7372197;19;20023;-60
2024/02/02 00:25:30;;;;;;;26.50;7.25;;;5.70;99.90;;;;;;7372414;19;20102;-60
2024/02/02 00:27:56;;;;;;;24.63;6.85;;;5.70;99.90;;;;;;7374245;19;20823;-60
2024/02/02 00:30:22;;;;;;;26.75;7.80;;;5.70;99.90;;;;;;7370444;19;20039;-60
2024/02/02 00:32:48;;;;;;;30.67;7.93;;;5.70;99.90;;;;;;7373717;19;20031;-60
2024/02/02 00:35:15;;;;;;;26.83;7.35;;;5.70;99.90;;;;;;7371714;19;20026;-60
2024/02/02 00:37:44;;;;;;;26.10;7.43;;;5.70;99.90;;;;;;7374031;19;20859;-60
2024/02/02 00:40:11;;;;;;;27.45;6.88;;;5.70;99.90;;;;;;7366565;19;20102;-60
2024/02/02 00:42:38;;;;;;;36.15;7.05;;;5.80;99.90;;;;;;7368830;19;20582;-60
2024/02/02 00:45:05;;;;;;;26.90;7.13;;;5.80;99.90;;;;;;7369249;19;20014;-62
2024/02/02 00:47:33;;;;;;;28.35;7.05;;;5.80;99.90;;;;;;7372732;19;20078;-62
2024/02/02 00:50:00;;;;;;;27.35;7.32;;;5.80;99.90;;;;;;7371045;19;20018;-62
2024/02/02 00:52:28;;;;;;;26.00;5.95;;;5.80;99.90;;;;;;7374471;19;20096;-62
2024/02/02 00:54:55;;;;;;;27.33;6.25;;;5.80;99.90;;;;;;7368693;19;20078;-62
2024/02/02 00:57:22;;;;;;;19.88;5.32;;;5.80;99.90;;;;;;7376503;19;20060;-62
2024/02/02 00:59:50;;;;;;;22.80;7.13;;;5.80;99.90;;;;;;7374128;19;20018;-62
2024/02/02 01:02:18;;;;;;;25.23;7.15;;;5.80;99.90;;;;;;7372499;19;20028;-62
2024/02/02 01:04:45;;;;;;;32.70;6.97;;;5.80;99.90;;;;;;7371489;19;20049;-62
2024/02/02 01:07:15;;;;;;;23.67;6.97;;;5.80;99.90;;;;;;7368933;19;20010;-62
2024/02/02 01:09:45;;;;;;;22.95;6.43;;;5.90;99.90;;;;;;7372508;19;20107;-63
2024/02/02 01:12:11;;;;;;;20.48;6.50;;;5.90;99.90;;;;;;7372139;19;20029;-61
2024/02/02 01:14:38;;;;;;;24.60;7.05;;;5.90;99.90;;;;;;7364979;19;20018;-61
2024/02/02 01:17:05;;;;;;;23.20;6.55;;;5.80;99.90;;;;;;7370220;19;20571;-61
2024/02/02 01:19:31;;;;;;;26.38;6.30;;;5.90;99.90;;;;;;7373994;19;20090;-61
2024/02/02 01:21:58;;;;;;;23.83;6.15;;;5.90;99.90;;;;;;7370699;19;20090;-63
2024/02/02 01:24:26;;;;;;;23.50;5.97;;;5.90;99.90;;;;;;7370860;19;20019;-63
2024/02/02 01:26:53;;;;;;;28.50;6.90;;;5.90;99.90;;;;;;7375069;19;20035;-62
2024/02/02 01:29:19;;;;;;;25.92;7.13;;;5.90;99.90;;;;;;7370791;19;20109;-62
2024/02/02 01:31:46;;;;;;;29.50;7.68;;;5.80;99.90;;;;;;7369695;19;20018;-61
2024/02/02 01:34:12;;;;;;;26.98;8.38;;;5.80;99.90;;;;;;7366703;19;20482;-61
2024/02/02 01:36:38;;;;;;;25.17;8.90;;;5.80;99.90;;;;;;7364499;19;20074;-62
2024/02/02 01:39:10;;;;;;;23.75;8.63;;;5.80;99.90;;;;;;7369419;19;20023;-62
2024/02/02 01:41:38;;;;;;;32.22;9.85;;;5.80;99.90;;;;;;7369705;19;20018;-62
2024/02/02 01:44:05;;;;;;;29.00;9.55;;;5.70;99.90;;;;;;7370933;19;20105;-63
2024/02/02 01:46:32;;;;;;;26.05;10.07;;;5.70;99.90;;;;;;7372638;19;20024;-63
2024/02/02 01:48:59;;;;;;;27.90;9.77;;;5.70;99.90;;;;;;7371496;19;20375;-64
2024/02/02 01:51:25;;;;;;;30.90;10.98;;;5.70;99.90;;;;;;7372341;19;20468;-63
2024/02/02 01:53:52;;;;;;;31.25;10.15;;;5.70;99.90;;;;;;7370367;19;20022;-63
2024/02/02 01:56:18;;;;;;;31.67;11.55;;;5.80;99.90;;;;;;7368533;19;20053;-63
2024/02/02 01:58:45;;;;;;;29.27;12.15;;;5.70;99.90;;;;;;7368627;19;20646;-61
2024/02/02 02:01:11;;;;;;;32.28;11.77;;;5.70;99.90;;;;;;7369505;19;20099;-61
2024/02/02 02:03:40;;;;;;;31.75;11.88;;;5.70;99.90;;;;;;7366799;19;20102;-61
2024/02/02 02:06:07;;;;;;;28.45;11.75;;;5.70;99.90;;;;;;7368834;19;20074;-62
2024/02/02 02:08:33;;;;;;;34.25;12.88;;;5.70;99.90;;;;;;7368905;19;20491;-60
2024/02/02 02:11:02;;;;;;;34.40;12.15;;;5.70;99.90;;;;;;7366953;19;20412;-60
2024/02/02 02:13:30;;;;;;;42.63;13.63;;;5.70;99.90;;;;;;7369428;19;20017;-61
2024/02/02 02:15:56;;;;;;;38.65;13.25;;;5.70;99.90;;;;;;7370197;19;20515;-60
2024/02/02 02:18:22;;;;;;;33.75;14.32;;;5.70;99.90;;;;;;7370157;19;20045;-60
2024/02/02 02:20:52;;;;;;;38.72;13.43;;;5.70;99.90;;;;;;7364392;19;20558;-60
2024/02/02 02:23:19;;;;;;;28.05;13.10;;;5.70;99.90;;;;;;7368100;19;20019;-60
2024/02/02 02:25:45;;;;;;;35.38;12.65;;;5.70;99.90;;;;;;7370313;19;20510;-61
2024/02/02 02:28:12;;;;;;;34.90;13.30;;;5.70;99.90;;;;;;7368433;19;20026;-61
2024/02/02 02:30:38;;;;;;;33.88;14.00;;;5.80;99.90;;;;;;7372429;19;20109;-60
2024/02/02 02:33:07;;;;;;;35.75;14.55;;;5.80;99.90;;;;;;7367808;19;20068;-62
2024/02/02 02:35:33;;;;;;;30.27;13.05;;;5.80;99.90;;;;;;7373570;19;20014;-61
2024/02/02 02:38:00;;;;;;;32.63;13.15;;;5.80;99.90;;;;;;7367150;19;20890;-60
2024/02/02 02:40:26;;;;;;;31.75;13.23;;;5.80;99.90;;;;;;7367336;19;20055;-62
2024/02/02 02:42:52;;;;;;;33.85;13.93;;;5.80;99.90;;;;;;7374158;19;20023;-62
2024/02/02 02:45:18;;;;;;;33.65;13.70;;;5.90;99.90;;;;;;7375437;19;20022;-61
2024/02/02 02:47:45;;;;;;;33.42;13.77;;;5.80;99.90;;;;;;7376769;19;20110;-60
2024/02/02 02:50:11;;;;;;;35.50;13.95;;;5.90;99.90;;;;;;7376316;19;20007;-61
2024/02/02 02:52:38;;;;;;;30.25;12.70;;;5.90;99.90;;;;;;7377852;19;20041;-62
2024/02/02 02:55:05;;;;;;;31.42;12.50;;;5.90;99.90;;;;;;7374601;19;20779;-61
2024/02/02 02:57:31;;;;;;;30.50;13.10;;;5.90;99.90;;;;;;7376593;19;20042;-60
2024/02/02 02:59:58;;;;;;;32.67;13.02;;;5.90;99.90;;;;;;7374990;19;20475;-61
2024/02/02 03:02:24;;;;;;;27.30;11.90;;;5.90;99.90;;;;;;7376355;19;20041;-61
2024/02/02 03:04:50;;;;;;;36.92;13.25;;;5.90;99.90;;;;;;7375600;19;20034;-61
2024/02/02 03:07:21;;;;;;;35.38;13.30;;;5.90;99.90;;;;;;7374534;19;20026;-61
2024/02/02 03:09:48;;;;;;;31.30;11.98;;;6.00;99.90;;;;;;7374713;19;20018;-61
2024/02/02 03:12:15;;;;;;;25.20;11.73;;;5.90;99.90;;;;;;7370907;19;20083;-60
2024/02/02 03:14:42;;;;;;;32.47;12.35;;;5.90;99.90;;;;;;7379314;19;20014;-60
2024/02/02 03:17:10;;;;;;;31.55;11.15;;;5.90;99.90;;;;;;7373866;19;20030;-60
2024/02/02 03:19:38;;;;;;;32.10;10.50;;;5.90;99.90;;;;;;7375634;19;20098;-60
2024/02/02 03:22:05;;;;;;;32.03;11.05;;;6.00;99.90;;;;;;7376899;19;20114;-60
2024/02/02 03:24:32;;;;;;;23.80;10.20;;;5.90;99.90;;;;;;7374884;19;20626;-61
2024/02/02 03:26:59;;;;;;;30.42;10.52;;;6.00;99.90;;;;;;7371389;19;20477;-61
2024/02/02 03:29:26;;;;;;;23.80;9.57;;;6.00;99.90;;;;;;7373874;19;20424;-61
2024/02/02 03:31:53;;;;;;;26.95;9.55;;;6.00;99.90;;;;;;7377124;19;20022;-61
2024/02/02 03:34:20;;;;;;;27.13;10.20;;;6.00;99.90;;;;;;7374379;19;20622;-60
2024/02/02 03:36:47;;;;;;;24.77;9.73;;;6.00;99.90;;;;;;7374645;19;20383;-60
2024/02/02 03:39:14;;;;;;;25.75;10.07;;;6.00;99.90;;;;;;7371363;19;20113;-61
2024/02/02 03:41:42;;;;;;;27.48;9.55;;;6.00;99.90;;;;;;7375667;19;20855;-61
2024/02/02 03:44:09;;;;;;;24.27;9.48;;;6.00;99.90;;;;;;7375391;19;20018;-61
2024/02/02 03:46:36;;;;;;;26.27;10.23;;;6.10;99.90;;;;;;7374948;19;20021;-61
2024/02/02 03:49:03;;;;;;;27.70;10.07;;;6.10;99.90;;;;;;7375057;19;20078;-61
2024/02/02 03:51:30;;;;;;;24.38;10.07;;;6.10;99.90;;;;;;7377248;19;20022;-60
2024/02/02 03:53:57;;;;;;;30.90;10.70;;;6.10;99.90;;;;;;7374132;19;20554;-62
2024/02/02 03:56:24;;;;;;;25.98;9.70;;;6.10;99.90;;;;;;7370977;19;20102;-60
2024/02/02 03:58:51;;;;;;;30.35;11.40;;;6.20;99.90;;;;;;7374112;19;20954;-60
2024/02/02 04:01:20;;;;;;;32.72;10.13;;;6.20;99.90;;;;;;7375099;19;20022;-62
2024/02/02 04:03:47;;;;;;;32.92;10.75;;;6.20;99.90;;;;;;7373503;19;20014;-62
2024/02/02 04:06:14;;;;;;;26.58;9.27;;;6.20;99.90;;;;;;7373728;19;20022;-60
2024/02/02 04:08:41;;;;;;;31.30;10.60;;;6.10;99.90;;;;;;7370750;19;20014;-60
2024/02/02 04:11:08;;;;;;;29.38;10.32;;;6.10;99.90;;;;;;7375293;19;20491;-62
2024/02/02 04:13:36;;;;;;;31.30;10.38;;;6.20;99.90;;;;;;7371613;19;20491;-61
2024/02/02 04:16:04;;;;;;;25.52;10.07;;;6.20;99.90;;;;;;7370018;19;20015;-60
2024/02/02 04:18:30;;;;;;;26.00;10.02;;;6.30;99.90;;;;;;7372433;19;20025;-62
2024/02/02 04:20:56;;;;;;;27.95;11.70;;;6.20;99.90;;;;;;7375575;19;20486;-62
2024/02/02 04:23:25;;;;;;;21.70;9.02;;;6.20;99.90;;;;;;7374985;19;20019;-61
2024/02/02 04:25:51;;;;;;;22.38;9.75;;;6.30;99.90;;;;;;7372855;19;20022;-62
2024/02/02 04:28:18;;;;;;;27.35;10.23;;;6.20;99.90;;;;;;7377349;19;20021;-60
2024/02/02 04:30:44;;;;;;;23.70;10.00;;;6.30;99.90;;;;;;7372656;19;20390;-60
2024/02/02 04:33:11;;;;;;;25.42;9.63;;;6.30;99.90;;;;;;7375940;19;20924;-60
2024/02/02 04:35:37;;;;;;;32.78;10.60;;;6.30;99.90;;;;;;7374111;19;20364;-60
2024/02/02 04:38:05;;;;;;;25.60;10.00;;;6.30;99.90;;;;;;7371818;19;20518;-60
2024/02/02 04:40:31;;;;;;;24.80;9.77;;;6.30;99.90;;;;;;7375264;19;20022;-62
2024/02/02 04:42:58;;;;;;;26.20;9.45;;;6.30;99.90;;;;;;7376041;19;20415;-60
2024/02/02 04:45:24;;;;;;;26.17;9.95;;;6.20;99.90;;;;;;7373887;19;20070;-60
2024/02/02 04:47:51;;;;;;;23.13;9.65;;;6.20;99.90;;;;;;7373636;19;20022;-60
2024/02/02 04:50:21;;;;;;;33.88;9.52;;;6.20;99.90;;;;;;7372785;19;20521;-60
2024/02/02 04:52:48;;;;;;;29.02;9.77;;;6.20;99.90;;;;;;7374428;19;20033;-60
2024/02/02 04:55:14;;;;;;;22.85;9.20;;;6.20;99.90;;;;;;7373448;19;20022;-61
2024/02/02 04:57:40;;;;;;;32.63;9.43;;;6.20;99.90;;;;;;7370691;19;20029;-60
2024/02/02 05:00:08;;;;;;;23.95;8.32;;;6.20;99.90;;;;;;7372568;19;20042;-60
2024/02/02 05:02:34;;;;;;;35.50;11.30;;;6.20;99.90;;;;;;7373406;19;20041;-60
2024/02/02 05:05:01;;;;;;;28.15;9.77;;;6.20;99.90;;;;;;7371408;19;20882;-60
2024/02/02 05:07:27;;;;;;;26.50;9.00;;;6.20;99.90;;;;;;7370499;19;20021;-61
2024/02/02 05:09:53;;;;;;;28.85;8.32;;;6.10;99.90;;;;;;7371433;19;20021;-60
2024/02/02 05:12:19;;;;;;;26.48;8.82;;;6.10;99.90;;;;;;7370917;19;20672;-61
2024/02/02 05:14:46;;;;;;;30.08;9.60;;;6.10;99.90;;;;;;7371210;19;20074;-60
2024/02/02 05:17:14;;;;;;;24.38;8.02;;;6.10;99.90;;;;;;7368801;19;20105;-61
2024/02/02 05:19:41;;;;;;;25.20;8.55;;;6.10;99.90;;;;;;7368614;19;20018;-63
2024/02/02 05:22:08;;;;;;;23.13;7.55;;;6.10;99.90;;;;;;7373121;19;20094;-62
2024/02/02 05:24:35;;;;;;;24.88;8.65;;;6.10;99.90;;;;;;7373478;19;20025;-62
2024/02/02 05:27:03;;;;;;;29.25;10.02;;;6.10;99.90;;;;;;7372156;19;20401;-62
2024/02/02 05:29:32;;;;;;;21.80;7.97;;;6.10;99.90;;;;;;7372630;19;20078;-62
2024/02/02 05:31:59;;;;;;;22.65;8.10;;;6.10;99.90;;;;;;7372182;19;20015;-60
2024/02/02 05:34:25;;;;;;;27.38;8.30;;;6.00;99.90;;;;;;7371659;19;20483;-60
2024/02/02 05:36:51;;;;;;;30.42;8.60;;;6.00;99.90;;;;;;7372325;19;20039;-60
2024/02/02 05:39:17;;;;;;;22.35;8.23;;;6.00;99.90;;;;;;7373019;19;20505;-60
2024/02/02 05:41:44;;;;;;;22.02;8.00;;;6.00;99.90;;;;;;7369737;19;20053;-61
2024/02/02 05:44:10;;;;;;;30.83;8.40;;;6.10;99.90;;;;;;7368634;19;20028;-61
2024/02/02 05:46:36;;;;;;;23.02;7.25;;;6.00;99.90;;;;;;7370581;19;20078;-61
2024/02/02 05:49:02;;;;;;;23.42;8.13;;;6.00;99.90;;;;;;7374531;19;20081;-61
2024/02/02 05:51:29;;;;;;;29.42;8.77;;;6.00;99.90;;;;;;7371835;19;20022;-61
2024/02/02 05:53:55;;;;;;;30.42;8.18;;;6.10;99.90;;;;;;7372170;19;20014;-60
2024/02/02 05:56:21;;;;;;;23.25;7.18;;;6.00;99.90;;;;;;7374098;19;20045;-61
2024/02/02 05:58:48;;;;;;;27.38;7.32;;;6.00;99.90;;;;;;7372682;19;20094;-61
2024/02/02 06:01:14;;;;;;;22.73;7.75;;;6.00;99.90;;;;;;7369796;19;20018;-61
2024/02/02 06:03:40;;;;;;;27.45;8.82;;;6.00;99.90;;;;;;7372821;19;20429;-61
2024/02/02 06:06:07;;;;;;;27.52;8.50;;;5.90;99.90;;;;;;7370786;19;20030;-62
2024/02/02 06:08:33;;;;;;;29.92;7.95;;;5.90;99.90;;;;;;7373519;19;20800;-62
2024/02/02 06:11:00;;;;;;;30.08;8.82;;;5.90;99.90;;;;;;7373392;19;20014;-60
2024/02/02 06:13:26;;;;;;;30.20;8.63;;;5.90;99.90;;;;;;7369701;19;20483;-62
2024/02/02 06:15:53;;;;;;;26.13;7.47;;;5.80;99.90;;;;;;7373635;19;20025;-62
2024/02/02 06:18:19;;;;;;;22.95;7.75;;;5.80;99.90;;;;;;7366904;19;20069;-61
2024/02/02 06:20:46;;;;;;;25.33;8.27;;;5.80;99.90;;;;;;7370479;19;20018;-60
2024/02/02 06:23:12;;;;;;;26.42;7.85;;;5.90;99.90;;;;;;7371879;19;20484;-61
2024/02/02 06:25:39;;;;;;;31.15;9.60;;;5.90;99.90;;;;;;7373970;19;20022;-62
2024/02/02 06:28:05;;;;;;;24.80;7.75;;;5.90;99.90;;;;;;7371170;19;20014;-62
2024/02/02 06:30:32;;;;;;;24.90;7.90;;;5.90;99.90;;;;;;7372611;19;20120;-62
2024/02/02 06:32:59;;;;;;;31.20;7.80;;;5.90;99.90;;;;;;7370745;19;20085;-62
2024/02/02 06:35:28;;;;;;;22.13;7.63;;;5.90;99.90;;;;;;7369117;19;21038;-60
2024/02/02 06:37:55;;;;;;;22.80;7.60;;;5.90;99.90;;;;;;7374707;19;20052;-60
2024/02/02 06:40:22;;;;;;;28.30;8.30;;;5.90;99.90;;;;;;7368985;19;20018;-61
2024/02/02 06:42:49;;;;;;;20.92;7.60;;;5.90;99.90;;;;;;7371444;19;20020;-60
2024/02/02 06:45:16;;;;;;;27.10;7.55;;;5.90;99.90;;;;;;7370859;19;20089;-61
2024/02/02 06:47:43;;;;;;;27.52;7.80;;;5.80;99.90;;;;;;7373607;19;20124;-60
2024/02/02 06:50:10;;;;;;;28.45;7.63;;;5.80;99.90;;;;;;7370131;19;20018;-59
2024/02/02 06:52:37;;;;;;;25.20;7.10;;;5.80;99.90;;;;;;7369866;19;21086;-59
2024/02/02 06:55:04;;;;;;;28.20;7.72;;;5.70;99.90;;;;;;7371311;19;20081;-60
2024/02/02 06:57:32;;;;;;;28.65;7.63;;;5.70;99.90;;;;;;7374370;19;20098;-61
2024/02/02 07:00:00;;;;;;;28.85;7.88;;;5.70;99.90;;;;;;7371430;19;20021;-62
2024/02/02 07:02:35;;;;;;;29.50;7.53;;;5.60;99.90;;;;;;7370212;19;20078;-62
2024/02/02 07:05:02;;;;;;;27.30;6.93;;;5.60;99.90;;;;;;7368226;19;20088;-63
2024/02/02 07:07:29;;;;;;;26.20;7.22;;;5.60;99.90;;;;;;7369521;19;20092;-61
2024/02/02 07:09:57;;;;;;;22.38;6.50;;;5.60;99.90;;;;;;7372623;19;20036;-60
2024/02/02 07:12:59;;;;;;;28.92;7.88;;;5.60;99.90;;;;;;7366750;19;20074;-60
2024/02/02 07:15:31;;;;;;;27.73;7.25;;;5.60;99.90;;;;;;7368394;19;20369;-62
2024/02/02 07:17:58;;;;;;;29.52;7.28;;;5.60;99.90;;;;;;7371513;19;20553;-60
2024/02/02 07:20:25;;;;;;;27.98;7.03;;;5.60;99.90;;;;;;7365949;19;20019;-62
2024/02/02 07:22:57;;;;;;;23.35;6.90;;;5.60;99.90;;;;;;7371198;19;20090;-61
2024/02/02 07:25:25;;;;;;;19.70;6.93;;;5.60;99.90;;;;;;7371214;19;20732;-62
2024/02/02 07:28:02;;;;;;;21.50;6.20;;;5.70;99.90;;;;;;7371795;19;20021;-60
2024/02/02 07:30:47;;;;;;;21.85;5.65;;;5.70;99.90;;;;;;7376581;19;20039;-60
2024/02/02 07:33:41;;;;;;;25.88;6.70;;;5.70;99.90;;;;;;7372466;19;20052;-60
2024/02/02 07:36:29;;;;;;;27.95;6.30;;;5.70;99.90;;;;;;7376692;19;20073;-60
2024/02/02 07:38:57;;;;;;;27.58;6.32;;;5.70;99.90;;;;;;7377750;19;20394;-62
2024/02/02 07:41:28;;;;;;;26.55;5.70;;;5.80;99.90;;;;;;7376135;19;20486;-62
2024/02/02 07:43:57;;;;;;;28.77;6.95;;;5.80;99.90;;;;;;7376864;19;20082;-60
2024/02/02 07:46:24;;;;;;;23.40;6.05;;;5.80;99.90;;;;;;7376606;19;20610;-59
2024/02/02 07:48:52;;;;;;;22.65;5.55;;;5.90;99.90;;;;;;7380008;19;20025;-62
2024/02/02 07:51:19;;;;;;;27.75;5.88;;;5.90;99.90;;;;;;7376186;19;20799;-62
2024/02/02 07:53:46;;;;;;;24.63;6.07;;;5.90;99.90;;;;;;7377771;19;20064;-60
2024/02/02 07:56:13;;;;;;;31.35;6.88;;;5.90;99.90;;;;;;7374326;19;20021;-60
2024/02/02 07:58:40;;;;;;;24.95;5.65;;;6.00;99.90;;;;;;7378184;19;20011;-62
2024/02/02 08:01:08;;;;;;;25.75;5.50;;;6.00;99.90;;;;;;7373824;19;20014;-61
2024/02/02 08:03:35;;;;;;;22.92;6.00;;;6.10;99.90;;;;;;7380244;19;20022;-62
2024/02/02 08:06:01;;;;;;;23.75;6.10;;;6.20;99.90;;;;;;7379453;19;20489;-62
2024/02/02 08:08:31;;;;;;;22.42;6.30;;;6.20;99.90;;;;;;7376140;19;20023;-62
2024/02/02 08:10:59;;;;;;;24.83;5.60;;;6.30;99.90;;;;;;7376157;19;20471;-61
2024/02/02 08:13:26;;;;;;;26.27;6.47;;;6.30;99.90;;;;;;7376684;19;20022;-61
2024/02/02 08:15:52;;;;;;;25.30;6.28;;;6.40;99.90;;;;;;7378151;19;20065;-60
2024/02/02 08:18:19;;;;;;;25.08;6.53;;;6.40;99.90;;;;;;7375570;19;20022;-60
2024/02/02 08:20:46;;;;;;;30.38;6.63;;;6.40;99.90;;;;;;7375637;19;20018;-60
2024/02/02 08:23:14;;;;;;;28.58;7.15;;;6.40;99.90;;;;;;7374677;19;20018;-60
2024/02/02 08:25:40;;;;;;;33.00;7.13;;;6.40;99.90;;;;;;7378290;19;20521;-60
2024/02/02 08:28:06;;;;;;;24.15;6.45;;;6.40;99.90;;;;;;7376445;19;20586;-62
2024/02/02 08:30:33;;;;;;;33.78;7.10;;;6.40;99.90;;;;;;7377847;19;20018;-61
2024/02/02 08:32:59;;;;;;;23.27;5.93;;;6.40;99.90;;;;;;7375450;19;20019;-60
2024/02/02 08:35:28;;;;;;;25.52;6.00;;;6.40;99.90;;;;;;7373865;19;20074;-62
2024/02/02 08:38:00;;;;;;;23.50;6.03;;;6.50;99.90;;;;;;7375260;19;20131;-62
2024/02/02 08:40:32;;;;;;;26.75;5.80;;;6.50;99.90;;;;;;7372114;19;20019;-62
2024/02/02 08:42:59;;;;;;;30.77;6.88;;;6.50;99.90;;;;;;7375061;19;20007;-62
2024/02/02 08:45:42;;;;;;;28.38;6.32;;;6.50;99.90;;;;;;7372576;19;20022;-59
2024/02/02 08:48:27;;;;;;;23.17;5.93;;;6.60;99.90;;;;;;7374128;19;20664;-60
2024/02/02 08:50:57;;;;;;;27.88;6.78;;;6.50;99.90;;;;;;7375516;19;20421;-62
2024/02/02 08:53:25;;;;;;;24.27;6.47;;;6.50;99.90;;;;;;7373830;19;20081;-63
2024/02/02 08:56:01;;;;;;;24.55;5.65;;;6.60;99.90;;;;;;7380385;19;20113;-61
2024/02/02 08:58:34;;;;;;;23.02;5.50;;;6.60;99.90;;;;;;7377804;19;20682;-61
2024/02/02 09:01:03;;;;;;;32.60;7.25;;;6.60;99.90;;;;;;7373586;19;20076;-59
2024/02/02 09:03:44;;;;;;;31.25;6.65;;;6.60;99.90;;;;;;7373512;19;20480;-59
2024/02/02 09:06:44;;;;;;;27.88;6.65;;;6.70;99.90;;;;;;7372997;19;20026;-61
2024/02/02 09:09:14;;;;;;;26.65;6.15;;;6.70;99.90;;;;;;7372413;19;20028;-61
2024/02/02 09:11:48;;;;;;;31.40;6.38;;;6.70;99.90;;;;;;7378303;19;20010;-62
2024/02/02 09:14:17;;;;;;;29.48;6.15;;;6.80;99.90;;;;;;7370883;19;20798;-61
2024/02/02 09:16:50;;;;;;;23.83;6.10;;;6.80;99.90;;;;;;7375290;19;20007;-63
2024/02/02 09:19:36;;;;;;;24.70;5.80;;;6.80;99.90;;;;;;7373234;19;20066;-62
2024/02/02 09:22:09;;;;;;;26.92;6.72;;;6.80;99.90;;;;;;7375205;19;20023;-62
2024/02/02 09:24:43;;;;;;;28.33;5.97;;;6.80;99.90;;;;;;7376144;19;20021;-61
2024/02/02 09:27:14;;;;;;;26.60;6.60;;;6.90;99.90;;;;;;7372532;19;20048;-61
2024/02/02 09:29:49;;;;;;;24.52;5.53;;;6.90;99.90;;;;;;7378641;19;20097;-60
2024/02/02 09:32:16;;;;;;;23.27;7.53;;;6.90;99.90;;;;;;7372964;19;20022;-61
2024/02/02 09:34:45;;;;;;;25.63;7.00;;;7.00;99.90;;;;;;7377155;19;20064;-62
2024/02/02 09:37:22;;;;;;;31.23;6.57;;;7.00;99.90;;;;;;7374252;19;20039;-61
2024/02/02 09:39:50;;;;;;;25.45;6.18;;;7.00;99.90;;;;;;7374522;19;20018;-62
2024/02/02 09:42:49;;;;;;;21.73;6.10;;;7.00;99.90;;;;;;7374668;19;20014;-62
2024/02/02 09:45:42;;;;;;;26.83;6.68;;;7.10;99.90;;;;;;7373637;19;20883;-62
2024/02/02 09:48:13;;;;;;;28.50;6.40;;;7.10;99.90;;;;;;7371292;19;20010;-60
2024/02/02 09:51:05;;;;;;;34.00;6.70;;;7.20;99.90;;;;;;7375879;19;20018;-62
2024/02/02 09:53:37;;;;;;;22.48;5.70;;;7.20;99.90;;;;;;7371078;19;20078;-62
2024/02/02 09:56:04;;;;;;;27.75;6.60;;;7.30;99.90;;;;;;7373187;19;20607;-60
2024/02/02 09:58:37;;;;;;;26.75;7.28;;;7.30;99.90;;;;;;7370967;19;20096;-62
2024/02/02 10:01:38;;;;;;;25.70;5.75;;;7.40;99.90;;;;;;7372517;19;20014;-62
2024/02/02 10:04:22;;;;;;;28.60;6.75;;;7.50;99.90;;;;;;7374766;19;20111;-62
2024/02/02 10:07:00;;;;;;;22.38;6.05;;;7.60;99.90;;;;;;7373897;19;20077;-60
2024/02/02 10:09:48;;;;;;;23.88;6.82;;;7.60;99.90;;;;;;7373371;19;20042;-60
2024/02/02 10:12:34;;;;;;;31.05;6.85;;;7.60;99.90;;;;;;7371160;19;20680;-60
2024/02/02 10:15:06;;;;;;;29.02;6.95;;;7.70;99.90;;;;;;7374361;19;20697;-62
2024/02/02 10:18:15;;;;;;;27.98;5.88;;;7.70;99.90;;;;;;7372579;19;20124;-62
2024/02/02 10:20:54;;;;;;;25.75;6.88;;;7.70;99.90;;;;;;7369525;19;20090;-62
2024/02/02 10:23:34;;;;;;;27.17;6.82;;;7.80;99.90;;;;;;7370129;19;20029;-62
2024/02/02 10:26:13;;;;;;;24.58;6.25;;;7.80;99.90;;;;;;7376136;19;20018;-60
2024/02/02 10:28:56;;;;;;;24.92;6.15;;;7.80;99.90;;;;;;7371697;19;20018;-62
2024/02/02 10:31:45;;;;;;;32.80;7.63;;;7.90;99.90;;;;;;7372820;19;20022;-62
2024/02/02 10:34:47;;;;;;;25.55;7.53;;;7.90;99.90;;;;;;7368207;19;20018;-61
2024/02/02 10:37:49;;;;;;;26.75;6.88;;;7.90;99.90;;;;;;7371813;19;20018;-60
2024/02/02 10:40:37;;;;;;;23.58;6.63;;;8.00;99.90;;;;;;7368135;19;20018;-60
2024/02/02 10:43:28;;;;;;;27.65;6.82;;;8.00;99.90;;;;;;7372949;19;20370;-63
2024/02/02 10:46:21;;;;;;;30.67;6.80;;;8.10;99.90;;;;;;7373649;19;20010;-61
2024/02/02 10:49:09;;;;;;;24.80;7.05;;;8.10;99.90;;;;;;7372279;19;20035;-62
2024/02/02 10:52:04;;;;;;;23.02;6.53;;;8.20;99.90;;;;;;7372873;19;20822;-61
2024/02/02 10:55:10;;;;;;;22.02;6.57;;;8.20;99.90;;;;;;7370165;19;20061;-61
2024/02/02 10:58:09;;;;;;;26.00;6.78;;;8.30;99.90;;;;;;7367548;19;20055;-62
2024/02/02 11:00:52;;;;;;;21.05;6.63;;;8.40;99.90;;;;;;7371985;19;20782;-62
2024/02/02 11:03:30;;;;;;;32.80;7.55;;;8.50;99.90;;;;;;7372082;19;20089;-61
2024/02/02 11:06:06;;;;;;;24.13;7.07;;;8.60;99.90;;;;;;7378750;19;20081;-62
2024/02/02 11:08:41;;;;;;;27.90;7.40;;;8.70;99.90;;;;;;7381529;19;20019;-61
2024/02/02 11:11:12;;;;;;;28.00;7.03;;;8.70;99.90;;;;;;7377230;19;20086;-61
2024/02/02 11:14:01;;;;;;;23.80;6.20;;;8.70;99.90;;;;;;7378288;19;20041;-62
2024/02/02 11:16:58;;;;;;;28.65;7.53;;;8.70;99.90;;;;;;7378760;19;20085;-60
2024/02/02 11:20:08;;;;;;;26.48;6.85;;;8.80;99.90;;;;;;7376654;19;20098;-61
2024/02/02 11:22:45;;;;;;;23.00;7.35;;;9.00;99.90;;;;;;7378170;19;20023;-62
2024/02/02 11:25:36;;;;;;;29.55;8.60;;;9.00;99.90;;;;;;7377108;19;20022;-61
2024/02/02 11:28:11;;;;;;;29.17;8.03;;;9.00;99.90;;;;;;7377615;19;20064;-61
2024/02/02 11:30:57;;;;;;;24.42;8.25;;;9.20;99.90;;;;;;7381567;19;20018;-61
2024/02/02 11:33:36;;;;;;;26.83;8.27;;;9.30;99.90;;;;;;7376419;19;20097;-63
2024/02/02 11:36:23;;;;;;;31.40;8.55;;;9.20;99.90;;;;;;7378144;19;20017;-61
2024/02/02 11:39:17;;;;;;;21.65;7.80;;;9.30;99.90;;;;;;7376485;19;20019;-61
2024/02/02 11:41:46;;;;;;;32.50;6.93;;;9.40;99.90;;;;;;7376594;19;20751;-61
2024/02/02 11:44:14;;;;;;;26.40;6.82;;;9.50;99.90;;;;;;7376907;19;20018;-61
2024/02/02 11:46:42;;;;;;;22.67;5.95;;;9.50;99.90;;;;;;7380562;19;20103;-61
2024/02/02 11:49:11;;;;;;;21.77;6.03;;;9.70;99.90;;;;;;7376193;19;20022;-61
2024/02/02 11:51:46;;;;;;;25.95;6.80;;;9.60;99.90;;;;;;7379110;19;20304;-63
2024/02/02 11:54:45;;;;;;;24.55;5.43;;;9.50;99.90;;;;;;7376824;19;20037;-63
2024/02/02 11:57:18;;;;;;;27.75;7.65;;;9.40;99.90;;;;;;7377917;19;20022;-62
2024/02/02 11:59:47;;;;;;;21.67;5.90;;;9.40;99.90;;;;;;7378352;19;20014;-63
2024/02/02 12:02:16;;;;;;;24.45;6.13;;;9.40;99.90;;;;;;7373240;19;20010;-63
2024/02/02 12:05:01;;;;;;;19.90;6.25;;;9.50;99.90;;;;;;7375486;19;20018;-63
2024/02/02 12:07:51;;;;;;;16.38;5.80;;;9.50;99.90;;;;;;7374766;19;20014;-62
2024/02/02 12:10:22;;;;;;;23.23;7.15;;;9.60;99.90;;;;;;7376798;19;20460;-61
2024/02/02 12:13:06;;;;;;;26.17;8.02;;;9.60;99.90;;;;;;7375800;19;20018;-61
2024/02/02 12:15:32;;;;;;;29.25;7.20;;;9.60;99.90;;;;;;7371229;19;20015;-60
2024/02/02 12:17:59;;;;;;;21.35;7.15;;;9.50;99.90;;;;;;7377817;19;20015;-61
2024/02/02 12:20:29;;;;;;;24.45;7.43;;;9.40;99.90;;;;;;7376785;19;20437;-63
2024/02/02 12:22:56;;;;;;;20.60;5.72;;;9.40;99.90;;;;;;7375781;19;20847;-61
2024/02/02 12:25:24;;;;;;;25.92;6.72;;;9.40;99.90;;;;;;7373649;19;20437;-61
2024/02/02 12:27:52;;;;;;;25.90;7.10;;;9.40;99.90;;;;;;7379080;19;20534;-61
2024/02/02 12:30:19;;;;;;;29.38;6.90;;;9.40;99.90;;;;;;7373676;19;20098;-62
2024/02/02 12:32:56;;;;;;;32.90;6.97;;;9.30;99.90;;;;;;7377811;19;20838;-63
2024/02/02 12:35:25;;;;;;;26.38;7.40;;;9.20;99.90;;;;;;7372577;19;20039;-62
2024/02/02 12:37:53;;;;;;;22.30;5.78;;;9.20;99.90;;;;;;7376360;19;20049;-63
2024/02/02 12:40:20;;;;;;;24.77;7.25;;;9.20;99.90;;;;;;7368999;19;20846;-63
2024/02/02 12:42:47;;;;;;;21.10;5.85;;;9.10;99.90;;;;;;7374907;19;20014;-62
2024/02/02 12:45:17;;;;;;;22.17;6.80;;;9.10;99.90;;;;;;7372040;19;20018;-62
2024/02/02 12:47:44;;;;;;;22.92;7.93;;;9.00;99.90;;;;;;7376307;19;20010;-63
2024/02/02 12:50:15;;;;;;;22.67;8.93;;;9.00;99.90;;;;;;7376560;19;20018;-61
2024/02/02 12:52:45;;;;;;;23.80;7.07;;;9.00;99.90;;;;;;7374973;19;20051;-61
2024/02/02 12:55:12;;;;;;;22.40;7.93;;;9.00;99.90;;;;;;7376176;19;20078;-62
2024/02/02 12:57:41;;;;;;;22.15;8.43;;;9.00;99.90;;;;;;7374625;19;20019;-63
2024/02/02 13:00:14;;;;;;;24.50;9.32;;;9.00;99.90;;;;;;7377847;19;20544;-63
2024/02/02 13:02:42;;;;;;;22.33;7.88;;;8.90;99.90;;;;;;7370486;19;20914;-63
2024/02/02 13:05:16;;;;;;;21.98;9.10;;;8.90;99.90;;;;;;7377922;19;20018;-62